CheckWX is a tool to help pilots better visualize weather data.  It is not intended as a substitute for an official pre-flight weather briefing.

20:12:55 UTC

LFPB TAF
Paris-Le Bourget Airport
Paris, France
TAF LFPB 291700Z 2918/3018 24010KT CAVOK BECMG 3003/3004 BKN008 TEMPO 3004/3007 BKN005 BECMG 3008/3010 4000 -RA BKN012 PROB40 TEMPO 3012/3013 2500 RA BKN007 BECMG 3013/3014 BKN009 TEMPO 3014/3018 2000 -DZ BKN007

Jan-29@
18:00 UTC

Jan-29 @ 18:00 UTC

Jan-30@
03:00 UTC

Jan-30 @ 03:00 UTC

TAF LFPB 291700Z 2918/3018 24010KT CAVOK
Wind
  • 240° at 10 KTS
Conditions
No significant weather
Cloud Levels
  • No significant clouds

Jan-30@
03:00 UTC

Jan-30 @ 03:00 UTC

Jan-30@
08:00 UTC

Jan-30 @ 08:00 UTC

BECMG 3003/3004 BKN008

Becoming

Becoming Conditions expected by Thu, Jan 30, 2020 @ 04:00 UTC

Wind
  • 240° at 10 KTS
Conditions
No significant weather
Cloud Levels
  • Broken at 800' AGL

Jan-30@
04:00 UTC

Jan-30 @ 04:00 UTC

Jan-30@
07:00 UTC

Jan-30 @ 07:00 UTC

TEMPO 3004/3007 BKN005

Temporary

Temporary Changes expected for less than half the time period

Cloud Levels
  • Broken at 500' AGL

Jan-30@
08:00 UTC

Jan-30 @ 08:00 UTC

Jan-30@
13:00 UTC

Jan-30 @ 13:00 UTC

BECMG 3008/3010 4000 -RA BKN012

Becoming

Becoming Conditions expected by Thu, Jan 30, 2020 @ 10:00 UTC

Wind
  • 240° at 10 KTS
Conditions
Light Rain
Cloud Levels
  • Broken at 1,200' AGL

Jan-30@
12:00 UTC

Jan-30 @ 12:00 UTC

Jan-30@
13:00 UTC

Jan-30 @ 13:00 UTC

PROB40 TEMPO 3012/3013 2500 RA BKN007

Temporary - 40% Likelihood

Temporary - 40% Likelihood during this time.

Conditions
Rain
Cloud Levels
  • Broken at 700' AGL

Jan-30@
13:00 UTC

Jan-30 @ 13:00 UTC

Jan-30@
18:00 UTC

Jan-30 @ 18:00 UTC

BECMG 3013/3014 BKN009

Becoming

Becoming Conditions expected by Thu, Jan 30, 2020 @ 14:00 UTC

Wind
  • 240° at 10 KTS
Conditions
Light Rain
Cloud Levels
  • Broken at 900' AGL

Jan-30@
14:00 UTC

Jan-30 @ 14:00 UTC

Jan-30@
18:00 UTC

Jan-30 @ 18:00 UTC

TEMPO 3014/3018 2000 -DZ BKN007

Temporary

Temporary Changes expected for less than half the time period

Conditions
Light Drizzle
Cloud Levels
  • Broken at 700' AGL